createdAt,value
2017-10-31T00:01:30.434Z,69.30
2017-10-31T00:03:58.021Z,69.60
2017-10-31T00:06:25.700Z,69.90
2017-10-31T00:08:53.349Z,70.30
2017-10-31T00:11:20.956Z,70.70
2017-10-31T00:13:48.543Z,70.90
2017-10-31T00:16:16.252Z,71.00
2017-10-31T00:18:43.919Z,71.00
2017-10-31T00:21:12.397Z,71.10
2017-10-31T00:23:39.988Z,71.00
2017-10-31T00:26:07.597Z,71.30
2017-10-31T00:28:35.212Z,71.10
2017-10-31T00:31:02.805Z,71.20
2017-10-31T00:33:30.570Z,71.30
2017-10-31T00:35:58.269Z,71.40
2017-10-31T00:38:25.933Z,71.50
2017-10-31T00:40:53.597Z,71.60
2017-10-31T00:43:21.264Z,71.80
2017-10-31T00:45:49.628Z,72.30
2017-10-31T00:48:17.306Z,72.30
2017-10-31T00:50:44.900Z,72.50
2017-10-31T00:53:12.529Z,72.10
2017-10-31T00:55:40.189Z,72.90
2017-10-31T00:58:07.857Z,73.00
2017-10-31T01:00:35.524Z,73.30
2017-10-31T01:03:03.898Z,74.60
2017-10-31T01:05:31.514Z,74.10
2017-10-31T01:07:59.106Z,74.20
2017-10-31T01:10:26.793Z,74.40
2017-10-31T01:12:55.140Z,74.20
2017-10-31T01:15:22.757Z,74.80
2017-10-31T01:17:50.345Z,75.10
2017-10-31T01:20:17.948Z,75.30
2017-10-31T01:22:46.332Z,76.50
2017-10-31T01:25:15.420Z,76.00
2017-10-31T01:27:43.090Z,76.00
2017-10-31T01:30:11.467Z,76.20
2017-10-31T01:32:39.862Z,76.40
2017-10-31T01:35:08.213Z,76.40
2017-10-31T01:37:35.888Z,76.40
2017-10-31T01:40:03.548Z,76.60
2017-10-31T01:42:31.185Z,76.70
2017-10-31T01:44:58.877Z,76.80
2017-10-31T01:47:26.544Z,77.00
2017-10-31T01:49:55.737Z,77.30
2017-10-31T01:52:23.321Z,78.00
2017-10-31T01:54:51.693Z,77.60
2017-10-31T01:57:20.045Z,77.70
2017-10-31T01:59:49.257Z,77.80
2017-10-31T02:02:17.609Z,77.90
2017-10-31T02:04:45.188Z,78.00
2017-10-31T02:07:12.861Z,77.90
2017-10-31T02:09:40.525Z,77.90
2017-10-31T02:12:08.128Z,77.80
2017-10-31T02:14:35.714Z,77.70
2017-10-31T02:17:03.413Z,77.50
2017-10-31T02:19:32.609Z,77.40
2017-10-31T02:22:00.202Z,77.20
2017-10-31T02:24:27.837Z,77.40
2017-10-31T02:26:56.197Z,77.60
2017-10-31T02:29:23.808Z,77.50
2017-10-31T02:31:51.435Z,77.50
2017-10-31T02:34:19.101Z,77.50
2017-10-31T02:36:49.137Z,77.40
2017-10-31T02:39:19.076Z,77.30
2017-10-31T02:41:46.661Z,77.30
2017-10-31T02:44:14.361Z,77.10
2017-10-31T02:46:41.953Z,77.10
2017-10-31T02:49:09.544Z,76.90
2017-10-31T02:51:37.252Z,76.80
2017-10-31T02:54:06.350Z,76.90
2017-10-31T02:56:34.728Z,76.90
2017-10-31T02:59:02.382Z,76.80
2017-10-31T03:01:30.049Z,77.00
2017-10-31T03:03:57.719Z,77.10
2017-10-31T03:06:26.091Z,77.10
2017-10-31T03:08:53.681Z,77.10
2017-10-31T03:11:22.132Z,76.90
2017-10-31T03:13:49.792Z,76.90
2017-10-31T03:16:17.369Z,76.90
2017-10-31T03:18:45.020Z,76.80
2017-10-31T03:21:12.600Z,76.90
2017-10-31T03:23:40.977Z,76.70
2017-10-31T03:26:09.349Z,76.60
2017-10-31T03:28:37.736Z,76.50
2017-10-31T03:31:06.188Z,76.70
2017-10-31T03:33:33.804Z,76.70
2017-10-31T03:36:01.430Z,76.80
2017-10-31T03:38:29.026Z,77.80
2017-10-31T03:40:56.650Z,78.00
2017-10-31T03:43:24.313Z,77.40
2017-10-31T03:45:51.922Z,77.60
2017-10-31T03:48:19.536Z,77.80
2017-10-31T03:50:47.149Z,78.00
2017-10-31T03:53:14.733Z,78.00
2017-10-31T03:55:42.346Z,78.10
2017-10-31T03:58:09.945Z,78.40
2017-10-31T04:00:37.640Z,78.40
2017-10-31T04:03:05.314Z,78.20
2017-10-31T04:05:32.904Z,78.40
2017-10-31T04:08:00.528Z,79.10
2017-10-31T04:10:28.112Z,78.30
2017-10-31T04:12:56.578Z,78.00
2017-10-31T04:15:24.232Z,78.00
2017-10-31T04:17:53.441Z,77.90
2017-10-31T04:20:21.034Z,77.90
2017-10-31T04:22:48.656Z,77.80
2017-10-31T04:25:16.329Z,77.70
2017-10-31T04:27:43.970Z,77.70
2017-10-31T04:30:11.558Z,77.70
2017-10-31T04:32:39.913Z,78.60
2017-10-31T04:35:07.593Z,78.20
2017-10-31T04:37:35.176Z,78.30
2017-10-31T04:40:03.637Z,78.70
2017-10-31T04:42:31.301Z,78.60
2017-10-31T04:44:58.963Z,78.80
2017-10-31T04:47:26.552Z,79.10
2017-10-31T04:49:54.164Z,79.70
2017-10-31T04:52:21.848Z,79.60
2017-10-31T04:54:50.980Z,79.90
2017-10-31T04:57:18.577Z,80.00
2017-10-31T04:59:46.275Z,80.10
2017-10-31T05:02:13.886Z,79.80
2017-10-31T05:04:41.496Z,79.80
2017-10-31T05:07:09.166Z,79.80
2017-10-31T05:09:37.512Z,79.90
2017-10-31T05:12:05.120Z,79.60
2017-10-31T05:14:33.581Z,79.50
2017-10-31T05:17:01.184Z,79.50
2017-10-31T05:19:28.769Z,79.30
2017-10-31T05:21:56.385Z,79.40
2017-10-31T05:24:24.845Z,79.50
2017-10-31T05:26:52.433Z,79.50
2017-10-31T05:29:20.894Z,79.70
2017-10-31T05:31:48.486Z,79.70
2017-10-31T05:34:16.091Z,79.70
2017-10-31T05:36:43.687Z,79.60
2017-10-31T05:39:12.170Z,79.90
2017-10-31T05:41:40.642Z,80.00
2017-10-31T05:44:08.302Z,80.00
2017-10-31T05:46:35.892Z,80.10
2017-10-31T05:49:03.504Z,80.20
2017-10-31T05:51:31.180Z,80.20
2017-10-31T05:53:58.840Z,80.40
2017-10-31T05:56:26.521Z,80.50
2017-10-31T05:58:54.177Z,80.40
2017-10-31T06:01:21.846Z,80.40
2017-10-31T06:03:49.432Z,80.20
2017-10-31T06:06:17.040Z,80.20
2017-10-31T06:08:45.224Z,80.20
2017-10-31T06:11:12.892Z,80.10
2017-10-31T06:13:40.556Z,80.00
2017-10-31T06:16:08.149Z,80.10
2017-10-31T06:18:36.605Z,81.00
2017-10-31T06:21:04.263Z,80.90
2017-10-31T06:23:37.536Z,81.40
2017-10-31T06:26:10.773Z,82.00
2017-10-31T06:31:46.952Z,83.40
2017-10-31T06:34:14.600Z,84.40
2017-10-31T06:36:42.267Z,85.30
2017-10-31T06:39:09.929Z,85.70
2017-10-31T06:41:37.508Z,86.00
2017-10-31T06:44:05.977Z,86.60
2017-10-31T06:46:33.594Z,86.40
2017-10-31T06:49:01.200Z,86.60
2017-10-31T06:51:28.856Z,86.60
2017-10-31T06:53:56.526Z,86.50
2017-10-31T06:56:25.630Z,86.40
2017-10-31T06:58:54.006Z,86.50
2017-10-31T07:01:22.387Z,87.00
2017-10-31T07:03:50.766Z,86.80
2017-10-31T07:06:19.245Z,86.20
2017-10-31T07:08:47.621Z,86.20
2017-10-31T07:11:15.219Z,86.20
2017-10-31T07:13:42.849Z,86.20
2017-10-31T07:16:10.448Z,86.20
2017-10-31T07:18:38.077Z,86.10
2017-10-31T07:21:05.680Z,86.00
2017-10-31T07:23:33.302Z,86.20
2017-10-31T07:26:00.953Z,85.70
2017-10-31T07:28:28.617Z,85.60
2017-10-31T07:30:57.710Z,85.30
2017-10-31T07:33:26.196Z,85.20
2017-10-31T07:35:55.388Z,85.00
2017-10-31T07:38:22.988Z,85.00
2017-10-31T07:40:50.575Z,84.90
2017-10-31T07:43:18.177Z,84.90
2017-10-31T07:45:45.761Z,84.70
2017-10-31T07:48:14.123Z,84.40
2017-10-31T07:50:42.501Z,84.20
2017-10-31T07:53:10.981Z,84.00
2017-10-31T07:55:40.069Z,84.80
2017-10-31T07:58:07.703Z,84.00
2017-10-31T08:00:35.301Z,84.00
2017-10-31T08:03:04.396Z,83.60
2017-10-31T08:05:32.765Z,83.40
2017-10-31T08:08:00.432Z,83.40
2017-10-31T08:10:28.113Z,83.10
2017-10-31T08:12:56.469Z,82.00
2017-10-31T08:15:24.140Z,82.70
2017-10-31T08:17:51.787Z,82.50
2017-10-31T08:20:19.388Z,82.10
2017-10-31T08:22:47.767Z,82.10
2017-10-31T08:25:16.233Z,82.10
2017-10-31T08:27:45.320Z,82.20
2017-10-31T08:30:12.966Z,82.10
2017-10-31T08:32:40.653Z,82.50
2017-10-31T08:35:08.312Z,82.30
2017-10-31T08:37:35.975Z,82.20
2017-10-31T08:40:04.370Z,81.60
2017-10-31T08:42:31.972Z,81.60
2017-10-31T08:44:59.593Z,82.10
2017-10-31T08:47:27.204Z,81.30
2017-10-31T08:49:54.788Z,81.00
2017-10-31T08:52:22.393Z,80.70
2017-10-31T08:54:50.857Z,80.20
2017-10-31T08:57:18.509Z,80.20
2017-10-31T08:59:46.905Z,79.70
2017-10-31T09:02:15.284Z,79.90
2017-10-31T09:04:43.666Z,79.90
2017-10-31T09:07:12.038Z,79.50
2017-10-31T09:09:39.656Z,79.50
2017-10-31T09:12:07.257Z,79.60
2017-10-31T09:14:34.921Z,79.50
2017-10-31T09:17:04.009Z,79.20
2017-10-31T09:19:32.393Z,79.60
2017-10-31T09:22:01.472Z,78.70
2017-10-31T09:24:29.078Z,78.70
2017-10-31T09:26:57.528Z,78.30
2017-10-31T09:29:25.206Z,78.20
2017-10-31T09:31:54.305Z,78.20
2017-10-31T09:34:22.677Z,78.70
2017-10-31T09:36:50.336Z,78.20
2017-10-31T09:39:18.705Z,77.60
2017-10-31T09:41:46.310Z,77.70
2017-10-31T09:44:14.670Z,77.50
2017-10-31T09:46:43.049Z,77.00
2017-10-31T09:49:11.426Z,76.60
2017-10-31T09:51:39.085Z,76.10
2017-10-31T09:54:06.744Z,76.30
2017-10-31T09:56:34.344Z,75.90
2017-10-31T09:59:02.031Z,76.20
2017-10-31T10:01:29.737Z,76.10
2017-10-31T10:03:58.849Z,76.20
2017-10-31T10:06:27.312Z,76.10
2017-10-31T10:08:54.986Z,76.10
2017-10-31T10:11:23.456Z,77.00
2017-10-31T10:13:51.082Z,76.10
2017-10-31T10:16:18.670Z,75.70
2017-10-31T10:18:46.285Z,75.60
2017-10-31T10:21:13.868Z,75.50
2017-10-31T10:23:41.563Z,75.40
2017-10-31T10:26:09.149Z,75.20
2017-10-31T10:28:37.610Z,74.90
2017-10-31T10:31:05.271Z,74.90
2017-10-31T10:33:33.649Z,74.70
2017-10-31T10:36:02.740Z,75.00
2017-10-31T10:38:31.223Z,75.80
2017-10-31T10:40:58.818Z,75.10
2017-10-31T10:43:27.197Z,74.80
2017-10-31T10:45:55.557Z,74.80
2017-10-31T10:48:23.196Z,74.80
2017-10-31T10:50:50.880Z,74.80
2017-10-31T10:53:18.476Z,74.60
2017-10-31T10:55:46.101Z,74.40
2017-10-31T10:58:15.192Z,74.40
2017-10-31T11:00:43.676Z,74.30
2017-10-31T11:03:11.350Z,74.30
2017-10-31T11:05:38.957Z,74.10
2017-10-31T11:08:06.564Z,74.20
2017-10-31T11:10:34.168Z,74.10
2017-10-31T11:13:01.756Z,73.50
2017-10-31T11:15:29.372Z,72.80
2017-10-31T11:17:57.836Z,72.70
2017-10-31T11:20:25.510Z,72.70
2017-10-31T11:22:53.976Z,72.00
2017-10-31T11:25:21.590Z,71.90
2017-10-31T11:27:49.301Z,71.70
2017-10-31T11:30:16.967Z,71.80
2017-10-31T11:32:44.589Z,71.90
2017-10-31T11:35:12.177Z,71.70
2017-10-31T11:37:39.848Z,71.90
2017-10-31T11:40:07.509Z,71.10
2017-10-31T11:42:35.177Z,71.00
2017-10-31T11:45:02.836Z,70.90
2017-10-31T11:47:30.458Z,70.90
2017-10-31T11:49:58.069Z,70.80
2017-10-31T11:52:25.726Z,71.20
2017-10-31T11:54:53.400Z,71.10
2017-10-31T11:57:21.014Z,70.50
2017-10-31T11:59:48.724Z,70.10
2017-10-31T12:02:16.380Z,70.20
2017-10-31T12:04:43.997Z,69.40
2017-10-31T12:07:11.609Z,70.10
2017-10-31T12:09:39.225Z,70.00
2017-10-31T12:12:06.812Z,70.70
2017-10-31T12:14:34.420Z,69.50
2017-10-31T12:17:02.781Z,68.90
2017-10-31T12:19:31.414Z,67.70
2017-10-31T12:21:59.016Z,67.50
2017-10-31T12:24:26.636Z,67.20
2017-10-31T12:26:54.238Z,66.80
2017-10-31T12:29:21.900Z,66.40
2017-10-31T12:31:49.484Z,65.60
2017-10-31T12:34:17.852Z,66.10
2017-10-31T12:36:46.220Z,66.40
2017-10-31T12:39:13.800Z,66.20
2017-10-31T12:41:42.271Z,65.80
2017-10-31T12:44:10.633Z,66.00
2017-10-31T12:46:38.310Z,66.00
2017-10-31T12:49:05.961Z,66.30
2017-10-31T12:51:33.629Z,66.50
2017-10-31T12:54:01.303Z,66.50
2017-10-31T12:56:28.967Z,66.50
2017-10-31T12:58:56.562Z,65.90
2017-10-31T13:01:24.171Z,66.00
2017-10-31T13:03:51.845Z,66.40
2017-10-31T13:06:19.453Z,66.50
2017-10-31T13:08:47.046Z,66.00
2017-10-31T13:11:14.665Z,66.10
2017-10-31T13:13:42.288Z,65.90
2017-10-31T13:16:09.917Z,65.70
2017-10-31T13:18:37.509Z,65.80
2017-10-31T13:21:05.109Z,65.60
2017-10-31T13:23:32.736Z,65.80
2017-10-31T13:26:01.048Z,66.00
2017-10-31T13:28:30.277Z,66.30
2017-10-31T13:30:58.728Z,66.10
2017-10-31T13:33:27.448Z,66.40
2017-10-31T13:35:56.031Z,66.30
2017-10-31T13:38:24.708Z,66.30
2017-10-31T13:40:53.679Z,66.40
2017-10-31T13:43:22.910Z,66.20
2017-10-31T13:45:50.519Z,66.20
2017-10-31T13:48:20.264Z,66.30
2017-10-31T13:50:48.533Z,66.30
2017-10-31T13:53:16.143Z,66.30
2017-10-31T13:55:43.819Z,66.10
2017-10-31T13:58:11.409Z,66.50
2017-10-31T14:00:40.244Z,66.50
2017-10-31T14:03:08.585Z,66.40
2017-10-31T14:05:36.786Z,66.70
2017-10-31T14:08:05.140Z,66.60
2017-10-31T14:10:34.362Z,66.50
2017-10-31T14:13:01.940Z,66.50
2017-10-31T14:15:29.545Z,66.40
2017-10-31T14:17:58.761Z,66.70
2017-10-31T14:20:27.877Z,66.80
2017-10-31T14:22:55.469Z,66.70
2017-10-31T14:25:23.157Z,66.60
2017-10-31T14:27:50.745Z,66.90
2017-10-31T14:30:19.126Z,67.00
2017-10-31T14:32:46.757Z,67.00
2017-10-31T14:35:14.364Z,67.30
2017-10-31T14:37:41.944Z,67.50
2017-10-31T14:40:09.549Z,67.40
2017-10-31T14:42:37.214Z,67.40
2017-10-31T14:45:05.684Z,67.50
2017-10-31T14:47:33.348Z,67.50
2017-10-31T14:50:01.067Z,67.70
2017-10-31T14:52:28.655Z,67.80
2017-10-31T14:54:56.246Z,67.80
2017-10-31T14:57:24.708Z,68.90
2017-10-31T14:59:52.298Z,68.10
2017-10-31T15:02:20.762Z,68.10
2017-10-31T15:04:49.865Z,68.20
2017-10-31T15:07:18.337Z,68.50
2017-10-31T15:09:45.997Z,68.40
2017-10-31T15:12:13.604Z,68.60
2017-10-31T15:14:41.216Z,69.10
2017-10-31T15:17:08.889Z,69.80
2017-10-31T15:19:36.504Z,70.50
2017-10-31T15:22:04.212Z,71.10
2017-10-31T15:24:31.801Z,71.50
2017-10-31T15:27:00.214Z,71.90
2017-10-31T15:29:27.813Z,71.80
2017-10-31T15:31:55.481Z,71.90
2017-10-31T15:34:23.146Z,71.80
2017-10-31T15:36:52.237Z,71.90
2017-10-31T15:39:19.963Z,71.90
2017-10-31T15:41:47.557Z,71.70
2017-10-31T15:44:15.173Z,71.60
2017-10-31T15:46:42.756Z,71.60
2017-10-31T15:49:10.445Z,71.70
2017-10-31T15:51:38.109Z,71.90
2017-10-31T15:54:05.778Z,72.40
2017-10-31T15:56:33.438Z,72.40
2017-10-31T15:59:01.049Z,72.50
2017-10-31T16:01:28.641Z,72.60
2017-10-31T16:03:56.330Z,72.90
2017-10-31T16:06:23.913Z,73.20
2017-10-31T16:08:52.261Z,73.80
2017-10-31T16:11:19.872Z,73.80
2017-10-31T16:13:47.473Z,74.00
2017-10-31T16:16:15.156Z,74.20
2017-10-31T16:18:42.745Z,74.80
2017-10-31T16:21:10.460Z,75.40
2017-10-31T16:23:38.141Z,75.70
2017-10-31T16:26:05.757Z,75.90
2017-10-31T16:28:33.365Z,76.10
2017-10-31T16:31:00.983Z,76.30
2017-10-31T16:33:34.418Z,76.40
2017-10-31T16:36:02.083Z,76.60
2017-10-31T16:38:29.680Z,76.70
2017-10-31T16:40:57.297Z,76.90
2017-10-31T16:43:24.897Z,77.00
2017-10-31T16:45:53.305Z,76.80
2017-10-31T16:48:20.919Z,76.80
2017-10-31T16:50:48.511Z,77.70
2017-10-31T16:53:19.206Z,76.90
2017-10-31T16:55:47.781Z,77.10
2017-10-31T16:58:15.401Z,77.00
2017-10-31T17:00:42.988Z,77.10
2017-10-31T17:03:10.612Z,77.10
2017-10-31T17:05:38.236Z,77.10
2017-10-31T17:08:05.900Z,77.20
2017-10-31T17:10:33.560Z,77.40
2017-10-31T17:13:01.229Z,77.40
2017-10-31T17:15:28.825Z,77.50
2017-10-31T17:17:56.556Z,77.60
2017-10-31T17:20:24.153Z,77.60
2017-10-31T17:22:51.768Z,77.60
2017-10-31T17:25:20.161Z,77.60
2017-10-31T17:27:47.816Z,77.60
2017-10-31T17:30:17.017Z,77.50
2017-10-31T17:32:44.609Z,77.40
2017-10-31T17:35:12.230Z,77.40
2017-10-31T17:37:39.821Z,77.30
2017-10-31T17:40:08.289Z,78.00
2017-10-31T17:42:35.872Z,77.20
2017-10-31T17:45:04.257Z,77.20
2017-10-31T17:47:31.884Z,77.10
2017-10-31T17:49:59.541Z,77.20
2017-10-31T17:52:27.928Z,77.10
2017-10-31T17:54:55.543Z,77.20
2017-10-31T17:57:23.154Z,77.10
2017-10-31T17:59:50.764Z,77.10
2017-10-31T18:02:18.349Z,77.20
2017-10-31T18:04:45.976Z,77.20
2017-10-31T18:07:13.561Z,77.10
2017-10-31T18:09:41.265Z,77.10
2017-10-31T18:12:08.885Z,77.20
2017-10-31T18:14:36.592Z,77.20
2017-10-31T18:17:04.210Z,77.40
2017-10-31T18:19:31.812Z,76.70
2017-10-31T18:21:59.424Z,77.30
2017-10-31T18:24:27.013Z,77.30
2017-10-31T18:26:54.633Z,77.30
2017-10-31T18:29:22.225Z,77.20
2017-10-31T18:31:49.837Z,77.30
2017-10-31T18:34:18.189Z,77.10
2017-10-31T18:36:45.810Z,77.20
2017-10-31T18:39:13.424Z,76.50
2017-10-31T18:41:41.089Z,77.20
2017-10-31T18:44:08.710Z,77.10
2017-10-31T18:46:36.413Z,77.00
2017-10-31T18:49:04.793Z,76.80
2017-10-31T18:51:32.452Z,76.80
2017-10-31T18:54:00.116Z,76.80
2017-10-31T18:56:27.701Z,76.80
2017-10-31T18:58:56.151Z,76.60
2017-10-31T19:01:25.244Z,76.70
2017-10-31T19:03:52.852Z,76.60
2017-10-31T19:06:20.486Z,77.50
2017-10-31T19:08:48.961Z,76.90
2017-10-31T19:11:17.335Z,76.90
2017-10-31T19:13:45.708Z,76.80
2017-10-31T19:16:14.919Z,76.80
2017-10-31T19:18:42.563Z,76.80
2017-10-31T19:21:10.245Z,76.60
2017-10-31T19:23:37.915Z,76.50
2017-10-31T19:26:06.300Z,76.40
2017-10-31T19:28:34.764Z,76.50
2017-10-31T19:31:03.964Z,76.60
2017-10-31T19:33:31.548Z,76.50
2017-10-31T19:35:59.928Z,76.70
2017-10-31T19:38:28.388Z,76.60
2017-10-31T19:40:56.047Z,76.70
2017-10-31T19:43:23.712Z,76.60
2017-10-31T19:45:51.382Z,76.60
2017-10-31T19:48:19.745Z,76.80
2017-10-31T19:50:47.426Z,76.20
2017-10-31T19:53:15.013Z,76.10
2017-10-31T19:55:42.649Z,76.80
2017-10-31T19:58:10.237Z,76.00
2017-10-31T20:00:37.865Z,76.10
2017-10-31T20:03:05.529Z,76.10
2017-10-31T20:05:33.205Z,76.00
2017-10-31T20:08:01.581Z,76.00
2017-10-31T20:10:29.233Z,75.90
2017-10-31T20:12:56.841Z,76.00
2017-10-31T20:15:24.458Z,76.00
2017-10-31T20:17:52.117Z,76.00
2017-10-31T20:20:19.790Z,76.10
2017-10-31T20:22:47.406Z,76.20
2017-10-31T20:25:15.011Z,76.90
2017-10-31T20:27:42.669Z,76.00
2017-10-31T20:30:11.767Z,76.20
2017-10-31T20:32:40.350Z,76.20
2017-10-31T20:35:08.018Z,77.00
2017-10-31T20:37:35.604Z,76.70
2017-10-31T20:40:04.062Z,76.30
2017-10-31T20:42:32.430Z,76.80
2017-10-31T20:45:00.806Z,76.30
2017-10-31T20:47:29.900Z,76.40
2017-10-31T20:49:57.573Z,76.30
2017-10-31T20:52:26.768Z,76.40
2017-10-31T20:54:55.175Z,76.40
2017-10-31T20:57:23.595Z,76.40
2017-10-31T20:59:51.214Z,76.40
2017-10-31T21:02:19.569Z,76.30
2017-10-31T21:04:47.241Z,76.30
2017-10-31T21:07:14.828Z,76.30
2017-10-31T21:09:43.276Z,76.30
2017-10-31T21:12:10.865Z,76.30
2017-10-31T21:14:39.381Z,76.50
2017-10-31T21:17:06.973Z,76.30
2017-10-31T21:19:34.653Z,76.40
2017-10-31T21:22:02.272Z,76.40
2017-10-31T21:24:29.984Z,76.50
2017-10-31T21:26:58.461Z,77.40
2017-10-31T21:29:26.120Z,76.60
2017-10-31T21:31:53.798Z,77.00
2017-10-31T21:34:22.162Z,76.70
2017-10-31T21:36:49.822Z,76.60
2017-10-31T21:39:17.484Z,76.60
2017-10-31T21:41:45.972Z,76.30
2017-10-31T21:44:13.627Z,76.30
2017-10-31T21:46:42.753Z,76.40
2017-10-31T21:49:11.113Z,76.50
2017-10-31T21:51:38.768Z,76.50
2017-10-31T21:54:06.432Z,76.50
2017-10-31T21:56:34.023Z,76.50
2017-10-31T21:59:02.486Z,76.60
2017-10-31T22:01:30.956Z,76.60
2017-10-31T22:03:58.568Z,76.50
2017-10-31T22:06:26.161Z,76.60
2017-10-31T22:08:53.778Z,76.70
2017-10-31T22:11:21.377Z,76.70
2017-10-31T22:13:48.988Z,76.70
2017-10-31T22:16:17.444Z,76.80
2017-10-31T22:18:45.053Z,76.70
2017-10-31T22:21:12.672Z,76.60
2017-10-31T22:23:40.297Z,76.50
2017-10-31T22:26:07.890Z,76.60
2017-10-31T22:28:36.273Z,76.70
2017-10-31T22:31:03.872Z,76.60
2017-10-31T22:33:31.496Z,76.70
2017-10-31T22:35:59.165Z,76.70
2017-10-31T22:38:26.756Z,76.70
2017-10-31T22:40:54.383Z,76.70
2017-10-31T22:43:21.982Z,76.70
2017-10-31T22:45:49.592Z,76.90
2017-10-31T22:48:17.180Z,77.10
2017-10-31T22:50:45.565Z,77.30
2017-10-31T22:53:14.024Z,77.10
2017-10-31T22:55:42.399Z,77.20
2017-10-31T22:58:09.984Z,77.30
2017-10-31T23:00:38.369Z,77.80
2017-10-31T23:03:06.741Z,77.40
2017-10-31T23:05:35.116Z,78.10
2017-10-31T23:08:02.710Z,77.30
2017-10-31T23:10:30.320Z,77.80
2017-10-31T23:12:57.916Z,77.20
2017-10-31T23:15:26.278Z,77.30
2017-10-31T23:17:54.669Z,77.80
2017-10-31T23:20:23.142Z,77.30
2017-10-31T23:22:50.860Z,77.20
2017-10-31T23:25:18.457Z,77.40
2017-10-31T23:27:46.125Z,77.30
2017-10-31T23:30:13.717Z,77.20
2017-10-31T23:32:41.334Z,77.20
2017-10-31T23:35:08.933Z,77.20
2017-10-31T23:37:37.326Z,77.50
2017-10-31T23:40:04.917Z,77.50
2017-10-31T23:42:32.617Z,77.60
2017-10-31T23:45:00.208Z,78.40
2017-10-31T23:47:27.941Z,77.90
2017-10-31T23:49:55.536Z,77.70
2017-10-31T23:52:23.156Z,77.80
2017-10-31T23:54:51.650Z,78.10
2017-10-31T23:57:19.309Z,78.10
2017-10-31T23:59:46.972Z,78.20
